Terminal Aerodrome Forecast
Issued by NWS Twin Cities, MN

Home | Current Version | Previous Version | Text Only | Print | Product List | Glossary On
Versions: 1 2 3 4 5 6 7 8 9 10 11 12 13 14
000
FTUS43 KMPX 281736
TAFEAU
TAF
KEAU 281736Z 2818/2918 06010KT P6SM -RA OVC045
     FM282000 05008KT 6SM -SHRA BR OVC050
     FM290600 03004KT P6SM SCT050 BKN100=

USA.gov is the U.S. government's official web portal to all federal, state and local government web resources and services.